sensor_id;sensor_type;location;lat;lon;timestamp;temperature;humidity
39919;DHT22;25589;51.552;13.424;2022-08-19T00:01:40;22.50;99.90
39919;DHT22;25589;51.552;13.424;2022-08-19T00:04:09;22.40;99.90
39919;DHT22;25589;51.552;13.424;2022-08-19T00:06:36;22.50;99.90
39919;DHT22;25589;51.552;13.424;2022-08-19T00:09:04;22.40;99.90
39919;DHT22;25589;51.552;13.424;2022-08-19T00:11:31;22.50;99.90
39919;DHT22;25589;51.552;13.424;2022-08-19T00:13:57;22.50;99.90
39919;DHT22;25589;51.552;13.424;2022-08-19T00:16:24;22.40;99.90
39919;DHT22;25589;51.552;13.424;2022-08-19T00:18:50;22.40;99.90
39919;DHT22;25589;51.552;13.424;2022-08-19T00:21:15;22.40;99.90
39919;DHT22;25589;51.552;13.424;2022-08-19T00:23:41;22.40;99.90
39919;DHT22;25589;51.552;13.424;2022-08-19T00:26:09;22.40;99.90
39919;DHT22;25589;51.552;13.424;2022-08-19T00:28:34;22.30;99.90
39919;DHT22;25589;51.552;13.424;2022-08-19T00:31:02;22.20;99.90
39919;DHT22;25589;51.552;13.424;2022-08-19T00:33:29;22.20;99.90
39919;DHT22;25589;51.552;13.424;2022-08-19T00:35:58;22.20;99.90
39919;DHT22;25589;51.552;13.424;2022-08-19T00:38:24;22.20;99.90
39919;DHT22;25589;51.552;13.424;2022-08-19T00:40:49;22.20;99.90
39919;DHT22;25589;51.552;13.424;2022-08-19T00:43:19;21.90;99.90
39919;DHT22;25589;51.552;13.424;2022-08-19T00:45:45;22.10;99.90
39919;DHT22;25589;51.552;13.424;2022-08-19T00:48:11;22.10;99.90
39919;DHT22;25589;51.552;13.424;2022-08-19T00:50:39;22.00;99.90
39919;DHT22;25589;51.552;13.424;2022-08-19T00:53:06;22.00;99.90
39919;DHT22;25589;51.552;13.424;2022-08-19T00:55:32;21.90;99.90
39919;DHT22;25589;51.552;13.424;2022-08-19T00:58:10;21.90;99.90
39919;DHT22;25589;51.552;13.424;2022-08-19T01:00:37;21.90;99.90
39919;DHT22;25589;51.552;13.424;2022-08-19T01:03:09;21.90;99.90
39919;DHT22;25589;51.552;13.424;2022-08-19T01:05:36;21.90;99.90
39919;DHT22;25589;51.552;13.424;2022-08-19T01:08:04;21.90;99.90
39919;DHT22;25589;51.552;13.424;2022-08-19T01:10:33;21.80;99.90
39919;DHT22;25589;51.552;13.424;2022-08-19T01:13:01;21.90;99.90
39919;DHT22;25589;51.552;13.424;2022-08-19T01:15:31;21.90;99.90
39919;DHT22;25589;51.552;13.424;2022-08-19T01:18:00;21.80;99.90
39919;DHT22;25589;51.552;13.424;2022-08-19T01:20:26;21.80;99.90
39919;DHT22;25589;51.552;13.424;2022-08-19T01:22:55;21.80;99.90
39919;DHT22;25589;51.552;13.424;2022-08-19T01:25:39;21.80;99.90
39919;DHT22;25589;51.552;13.424;2022-08-19T01:28:07;21.80;99.90
39919;DHT22;25589;51.552;13.424;2022-08-19T01:30:35;21.70;99.90
39919;DHT22;25589;51.552;13.424;2022-08-19T01:33:01;21.70;99.90
39919;DHT22;25589;51.552;13.424;2022-08-19T01:35:29;21.80;99.90
39919;DHT22;25589;51.552;13.424;2022-08-19T01:37:59;21.80;99.90
39919;DHT22;25589;51.552;13.424;2022-08-19T01:40:31;21.70;99.90
39919;DHT22;25589;51.552;13.424;2022-08-19T01:42:57;21.70;99.90
39919;DHT22;25589;51.552;13.424;2022-08-19T01:45:25;21.70;99.90
39919;DHT22;25589;51.552;13.424;2022-08-19T01:47:50;21.70;99.90
39919;DHT22;25589;51.552;13.424;2022-08-19T01:50:16;21.70;99.90
39919;DHT22;25589;51.552;13.424;2022-08-19T01:52:43;21.70;99.90
39919;DHT22;25589;51.552;13.424;2022-08-19T01:55:16;21.70;99.90
39919;DHT22;25589;51.552;13.424;2022-08-19T01:57:45;21.70;99.90
39919;DHT22;25589;51.552;13.424;2022-08-19T02:00:15;21.80;99.90
39919;DHT22;25589;51.552;13.424;2022-08-19T02:02:42;21.80;99.90
39919;DHT22;25589;51.552;13.424;2022-08-19T02:05:08;21.80;99.90
39919;DHT22;25589;51.552;13.424;2022-08-19T02:07:35;21.80;99.90
39919;DHT22;25589;51.552;13.424;2022-08-19T02:10:04;21.80;99.90
39919;DHT22;25589;51.552;13.424;2022-08-19T02:12:30;21.80;99.90
39919;DHT22;25589;51.552;13.424;2022-08-19T02:14:55;21.80;99.90
39919;DHT22;25589;51.552;13.424;2022-08-19T02:17:21;21.80;99.90
39919;DHT22;25589;51.552;13.424;2022-08-19T02:19:46;21.70;99.90
39919;DHT22;25589;51.552;13.424;2022-08-19T02:22:13;21.70;99.90
39919;DHT22;25589;51.552;13.424;2022-08-19T02:24:38;21.70;99.90
39919;DHT22;25589;51.552;13.424;2022-08-19T02:27:04;21.70;99.90
39919;DHT22;25589;51.552;13.424;2022-08-19T02:29:31;21.70;99.90
39919;DHT22;25589;51.552;13.424;2022-08-19T02:31:56;21.80;99.90
39919;DHT22;25589;51.552;13.424;2022-08-19T02:34:22;21.80;99.90
39919;DHT22;25589;51.552;13.424;2022-08-19T02:36:47;21.60;99.90
39919;DHT22;25589;51.552;13.424;2022-08-19T02:39:13;21.70;99.90
39919;DHT22;25589;51.552;13.424;2022-08-19T02:41:38;21.60;99.90
39919;DHT22;25589;51.552;13.424;2022-08-19T02:44:04;21.60;99.90
39919;DHT22;25589;51.552;13.424;2022-08-19T02:46:31;21.60;99.90
39919;DHT22;25589;51.552;13.424;2022-08-19T02:49:00;21.60;99.90
39919;DHT22;25589;51.552;13.424;2022-08-19T02:51:30;21.60;99.90
39919;DHT22;25589;51.552;13.424;2022-08-19T02:53:57;21.60;99.90
39919;DHT22;25589;51.552;13.424;2022-08-19T02:56:22;21.50;99.90
39919;DHT22;25589;51.552;13.424;2022-08-19T02:58:50;21.40;99.90
39919;DHT22;25589;51.552;13.424;2022-08-19T03:01:21;21.40;99.90
39919;DHT22;25589;51.552;13.424;2022-08-19T03:03:47;21.40;99.90
39919;DHT22;25589;51.552;13.424;2022-08-19T03:06:15;21.30;99.90
39919;DHT22;25589;51.552;13.424;2022-08-19T03:08:43;21.20;99.90
39919;DHT22;25589;51.552;13.424;2022-08-19T03:11:24;21.30;99.90
39919;DHT22;25589;51.552;13.424;2022-08-19T03:13:50;21.40;99.90
39919;DHT22;25589;51.552;13.424;2022-08-19T03:16:18;21.50;99.90
39919;DHT22;25589;51.552;13.424;2022-08-19T03:18:44;21.50;99.90
39919;DHT22;25589;51.552;13.424;2022-08-19T03:21:19;21.50;99.90
39919;DHT22;25589;51.552;13.424;2022-08-19T03:23:45;21.50;99.90
39919;DHT22;25589;51.552;13.424;2022-08-19T03:26:11;21.50;99.90
39919;DHT22;25589;51.552;13.424;2022-08-19T03:28:37;21.50;99.90
39919;DHT22;25589;51.552;13.424;2022-08-19T03:31:08;21.40;99.90
39919;DHT22;25589;51.552;13.424;2022-08-19T03:33:35;21.40;99.90
39919;DHT22;25589;51.552;13.424;2022-08-19T03:36:15;21.40;99.90
39919;DHT22;25589;51.552;13.424;2022-08-19T03:38:44;21.40;99.90
39919;DHT22;25589;51.552;13.424;2022-08-19T03:41:16;21.50;99.90
39919;DHT22;25589;51.552;13.424;2022-08-19T03:43:43;21.40;99.90
39919;DHT22;25589;51.552;13.424;2022-08-19T03:46:15;21.40;99.90
39919;DHT22;25589;51.552;13.424;2022-08-19T03:48:42;21.40;99.90
39919;DHT22;25589;51.552;13.424;2022-08-19T03:51:19;21.40;99.90
39919;DHT22;25589;51.552;13.424;2022-08-19T03:53:46;21.30;99.90
39919;DHT22;25589;51.552;13.424;2022-08-19T03:56:12;21.30;99.90
39919;DHT22;25589;51.552;13.424;2022-08-19T03:58:39;21.20;99.90
39919;DHT22;25589;51.552;13.424;2022-08-19T04:01:19;21.20;99.90
39919;DHT22;25589;51.552;13.424;2022-08-19T04:03:45;21.20;99.90
39919;DHT22;25589;51.552;13.424;2022-08-19T04:06:21;21.10;99.90
39919;DHT22;25589;51.552;13.424;2022-08-19T04:08:49;21.20;99.90
39919;DHT22;25589;51.552;13.424;2022-08-19T04:11:18;21.20;99.90
39919;DHT22;25589;51.552;13.424;2022-08-19T04:13:45;21.20;99.90
39919;DHT22;25589;51.552;13.424;2022-08-19T04:16:11;21.20;99.90
39919;DHT22;25589;51.552;13.424;2022-08-19T04:18:38;21.20;99.90
39919;DHT22;25589;51.552;13.424;2022-08-19T04:21:04;21.30;99.90
39919;DHT22;25589;51.552;13.424;2022-08-19T04:23:32;21.30;99.90
39919;DHT22;25589;51.552;13.424;2022-08-19T04:25:58;21.40;99.90
39919;DHT22;25589;51.552;13.424;2022-08-19T04:28:24;21.40;99.90
39919;DHT22;25589;51.552;13.424;2022-08-19T04:30:51;21.50;99.90
39919;DHT22;25589;51.552;13.424;2022-08-19T04:33:24;21.50;99.90
39919;DHT22;25589;51.552;13.424;2022-08-19T04:35:51;21.50;99.90
39919;DHT22;25589;51.552;13.424;2022-08-19T04:38:19;21.60;99.90
39919;DHT22;25589;51.552;13.424;2022-08-19T04:40:49;21.60;99.90
39919;DHT22;25589;51.552;13.424;2022-08-19T04:43:35;21.60;99.90
39919;DHT22;25589;51.552;13.424;2022-08-19T04:46:13;21.60;99.90
39919;DHT22;25589;51.552;13.424;2022-08-19T04:48:39;21.60;99.90
39919;DHT22;25589;51.552;13.424;2022-08-19T04:51:10;21.60;99.90
39919;DHT22;25589;51.552;13.424;2022-08-19T04:53:38;21.60;99.90
39919;DHT22;25589;51.552;13.424;2022-08-19T04:56:18;21.50;99.90
39919;DHT22;25589;51.552;13.424;2022-08-19T04:58:45;21.40;99.90
39919;DHT22;25589;51.552;13.424;2022-08-19T05:01:33;21.30;99.90
39919;DHT22;25589;51.552;13.424;2022-08-19T05:04:00;21.30;99.90
39919;DHT22;25589;51.552;13.424;2022-08-19T05:06:26;21.30;99.90
39919;DHT22;25589;51.552;13.424;2022-08-19T05:08:54;21.30;99.90
39919;DHT22;25589;51.552;13.424;2022-08-19T05:11:23;21.20;99.90
39919;DHT22;25589;51.552;13.424;2022-08-19T05:13:50;21.30;99.90
39919;DHT22;25589;51.552;13.424;2022-08-19T05:16:18;21.30;99.90
39919;DHT22;25589;51.552;13.424;2022-08-19T05:18:44;21.30;99.90
39919;DHT22;25589;51.552;13.424;2022-08-19T05:21:28;21.30;99.90
39919;DHT22;25589;51.552;13.424;2022-08-19T05:24:13;21.40;99.90
39919;DHT22;25589;51.552;13.424;2022-08-19T05:26:44;21.50;99.90
39919;DHT22;25589;51.552;13.424;2022-08-19T05:29:16;21.50;99.90
39919;DHT22;25589;51.552;13.424;2022-08-19T05:31:42;21.50;99.90
39919;DHT22;25589;51.552;13.424;2022-08-19T05:34:08;21.50;99.90
39919;DHT22;25589;51.552;13.424;2022-08-19T05:36:40;21.50;99.90
39919;DHT22;25589;51.552;13.424;2022-08-19T05:39:15;21.60;99.90
39919;DHT22;25589;51.552;13.424;2022-08-19T05:41:46;21.60;99.90
39919;DHT22;25589;51.552;13.424;2022-08-19T05:44:13;21.50;99.90
39919;DHT22;25589;51.552;13.424;2022-08-19T05:46:39;21.60;99.90
39919;DHT22;25589;51.552;13.424;2022-08-19T05:49:06;21.60;99.90
39919;DHT22;25589;51.552;13.424;2022-08-19T05:51:33;21.60;99.90
39919;DHT22;25589;51.552;13.424;2022-08-19T05:54:00;21.70;99.90
39919;DHT22;25589;51.552;13.424;2022-08-19T05:56:26;21.70;99.90
39919;DHT22;25589;51.552;13.424;2022-08-19T05:58:52;21.70;99.90
39919;DHT22;25589;51.552;13.424;2022-08-19T06:01:19;21.70;99.90
39919;DHT22;25589;51.552;13.424;2022-08-19T06:03:45;21.70;99.90
39919;DHT22;25589;51.552;13.424;2022-08-19T06:06:12;21.70;99.90
39919;DHT22;25589;51.552;13.424;2022-08-19T06:08:39;21.70;99.90
39919;DHT22;25589;51.552;13.424;2022-08-19T06:11:13;21.80;99.90
39919;DHT22;25589;51.552;13.424;2022-08-19T06:13:39;21.80;99.90
39919;DHT22;25589;51.552;13.424;2022-08-19T06:16:04;21.80;99.90
39919;DHT22;25589;51.552;13.424;2022-08-19T06:18:30;21.70;99.90
39919;DHT22;25589;51.552;13.424;2022-08-19T06:20:55;21.80;99.90
39919;DHT22;25589;51.552;13.424;2022-08-19T06:23:21;21.80;99.90
39919;DHT22;25589;51.552;13.424;2022-08-19T06:25:47;21.80;99.90
39919;DHT22;25589;51.552;13.424;2022-08-19T06:28:12;21.80;99.90
39919;DHT22;25589;51.552;13.424;2022-08-19T06:30:38;21.90;99.90
39919;DHT22;25589;51.552;13.424;2022-08-19T06:33:04;21.90;99.90
39919;DHT22;25589;51.552;13.424;2022-08-19T06:35:30;21.90;99.90
39919;DHT22;25589;51.552;13.424;2022-08-19T06:37:56;21.80;99.90
39919;DHT22;25589;51.552;13.424;2022-08-19T06:40:21;21.90;99.90
39919;DHT22;25589;51.552;13.424;2022-08-19T06:42:47;21.90;99.90
39919;DHT22;25589;51.552;13.424;2022-08-19T06:45:13;22.00;99.90
39919;DHT22;25589;51.552;13.424;2022-08-19T06:47:40;22.00;99.90
39919;DHT22;25589;51.552;13.424;2022-08-19T06:50:12;21.90;99.90
39919;DHT22;25589;51.552;13.424;2022-08-19T06:52:37;21.90;99.90
39919;DHT22;25589;51.552;13.424;2022-08-19T06:55:05;21.80;99.90
39919;DHT22;25589;51.552;13.424;2022-08-19T06:57:31;21.80;99.90
39919;DHT22;25589;51.552;13.424;2022-08-19T06:59:58;21.80;99.90
39919;DHT22;25589;51.552;13.424;2022-08-19T07:02:25;21.70;99.90
39919;DHT22;25589;51.552;13.424;2022-08-19T07:04:52;21.70;99.90
39919;DHT22;25589;51.552;13.424;2022-08-19T07:07:17;21.80;99.90
39919;DHT22;25589;51.552;13.424;2022-08-19T07:09:44;21.70;99.90
39919;DHT22;25589;51.552;13.424;2022-08-19T07:12:12;21.80;99.90
39919;DHT22;25589;51.552;13.424;2022-08-19T07:14:40;21.90;99.90
39919;DHT22;25589;51.552;13.424;2022-08-19T07:17:09;21.90;99.90
39919;DHT22;25589;51.552;13.424;2022-08-19T07:19:36;21.90;99.90
39919;DHT22;25589;51.552;13.424;2022-08-19T07:22:04;22.00;99.90
39919;DHT22;25589;51.552;13.424;2022-08-19T07:24:30;22.00;99.90
39919;DHT22;25589;51.552;13.424;2022-08-19T07:26:59;21.90;99.90
39919;DHT22;25589;51.552;13.424;2022-08-19T07:29:31;21.90;99.90
39919;DHT22;25589;51.552;13.424;2022-08-19T07:31:59;21.90;99.90
39919;DHT22;25589;51.552;13.424;2022-08-19T07:34:27;21.90;99.90
39919;DHT22;25589;51.552;13.424;2022-08-19T07:36:54;21.90;99.90
39919;DHT22;25589;51.552;13.424;2022-08-19T07:39:25;21.90;99.90
39919;DHT22;25589;51.552;13.424;2022-08-19T07:41:51;22.00;99.90
39919;DHT22;25589;51.552;13.424;2022-08-19T07:44:17;22.00;99.90
39919;DHT22;25589;51.552;13.424;2022-08-19T07:46:46;21.90;99.90
39919;DHT22;25589;51.552;13.424;2022-08-19T07:49:12;21.90;99.90
39919;DHT22;25589;51.552;13.424;2022-08-19T07:51:43;21.90;99.90
39919;DHT22;25589;51.552;13.424;2022-08-19T07:54:09;21.90;99.90
39919;DHT22;25589;51.552;13.424;2022-08-19T07:56:35;21.90;99.90
39919;DHT22;25589;51.552;13.424;2022-08-19T07:59:00;21.80;99.90
39919;DHT22;25589;51.552;13.424;2022-08-19T08:01:27;21.80;99.90
39919;DHT22;25589;51.552;13.424;2022-08-19T08:03:54;21.80;99.90
39919;DHT22;25589;51.552;13.424;2022-08-19T08:06:40;21.90;99.90
39919;DHT22;25589;51.552;13.424;2022-08-19T08:09:32;22.00;99.90
39919;DHT22;25589;51.552;13.424;2022-08-19T08:14:43;22.00;99.90
39919;DHT22;25589;51.552;13.424;2022-08-19T08:17:10;22.10;99.90
39919;DHT22;25589;51.552;13.424;2022-08-19T08:19:36;22.10;99.90
39919;DHT22;25589;51.552;13.424;2022-08-19T08:22:03;22.10;99.90
39919;DHT22;25589;51.552;13.424;2022-08-19T08:24:30;22.10;99.90
39919;DHT22;25589;51.552;13.424;2022-08-19T08:26:59;22.20;99.90
39919;DHT22;25589;51.552;13.424;2022-08-19T08:29:29;22.20;99.90
39919;DHT22;25589;51.552;13.424;2022-08-19T08:31:55;22.30;99.90
39919;DHT22;25589;51.552;13.424;2022-08-19T08:34:20;22.40;99.90
39919;DHT22;25589;51.552;13.424;2022-08-19T08:36:47;22.40;99.90
39919;DHT22;25589;51.552;13.424;2022-08-19T08:39:19;22.40;99.90
39919;DHT22;25589;51.552;13.424;2022-08-19T08:45:12;22.70;99.90
39919;DHT22;25589;51.552;13.424;2022-08-19T08:47:43;22.60;99.90
39919;DHT22;25589;51.552;13.424;2022-08-19T08:50:19;22.60;99.90
39919;DHT22;25589;51.552;13.424;2022-08-19T08:52:51;22.60;99.90
39919;DHT22;25589;51.552;13.424;2022-08-19T08:55:21;22.70;99.90
39919;DHT22;25589;51.552;13.424;2022-08-19T09:00:26;22.80;99.90
39919;DHT22;25589;51.552;13.424;2022-08-19T09:02:54;22.80;99.90
39919;DHT22;25589;51.552;13.424;2022-08-19T09:05:21;22.80;99.90
39919;DHT22;25589;51.552;13.424;2022-08-19T09:13:28;22.80;99.90
39919;DHT22;25589;51.552;13.424;2022-08-19T09:16:07;22.80;99.90
39919;DHT22;25589;51.552;13.424;2022-08-19T09:18:47;22.80;99.90
39919;DHT22;25589;51.552;13.424;2022-08-19T09:21:17;22.80;99.90
39919;DHT22;25589;51.552;13.424;2022-08-19T09:23:42;22.90;99.90
39919;DHT22;25589;51.552;13.424;2022-08-19T09:26:14;22.80;99.90
39919;DHT22;25589;51.552;13.424;2022-08-19T09:28:41;22.70;99.90
39919;DHT22;25589;51.552;13.424;2022-08-19T09:31:10;22.60;99.90
39919;DHT22;25589;51.552;13.424;2022-08-19T09:33:35;22.60;99.90
39919;DHT22;25589;51.552;13.424;2022-08-19T09:36:07;22.50;99.90
39919;DHT22;25589;51.552;13.424;2022-08-19T09:38:34;22.50;99.90
39919;DHT22;25589;51.552;13.424;2022-08-19T09:41:09;22.50;99.90
39919;DHT22;25589;51.552;13.424;2022-08-19T09:43:36;22.60;99.90
39919;DHT22;25589;51.552;13.424;2022-08-19T09:46:04;22.50;99.90
39919;DHT22;25589;51.552;13.424;2022-08-19T09:48:36;22.50;99.90
39919;DHT22;25589;51.552;13.424;2022-08-19T09:51:04;22.60;99.90
39919;DHT22;25589;51.552;13.424;2022-08-19T09:53:30;22.70;99.90
39919;DHT22;25589;51.552;13.424;2022-08-19T09:55:55;22.70;99.90
39919;DHT22;25589;51.552;13.424;2022-08-19T09:58:21;22.70;99.90
39919;DHT22;25589;51.552;13.424;2022-08-19T10:00:49;22.70;99.90
39919;DHT22;25589;51.552;13.424;2022-08-19T10:03:15;22.70;99.90
39919;DHT22;25589;51.552;13.424;2022-08-19T10:05:40;22.70;99.90
39919;DHT22;25589;51.552;13.424;2022-08-19T10:08:17;22.70;99.90
39919;DHT22;25589;51.552;13.424;2022-08-19T10:10:45;22.70;99.90
39919;DHT22;25589;51.552;13.424;2022-08-19T10:13:11;22.70;99.90
39919;DHT22;25589;51.552;13.424;2022-08-19T10:15:37;22.70;99.90
39919;DHT22;25589;51.552;13.424;2022-08-19T10:18:05;22.70;99.90
39919;DHT22;25589;51.552;13.424;2022-08-19T10:20:31;22.80;99.90
39919;DHT22;25589;51.552;13.424;2022-08-19T10:22:57;22.80;99.90
39919;DHT22;25589;51.552;13.424;2022-08-19T10:25:25;22.80;99.90
39919;DHT22;25589;51.552;13.424;2022-08-19T10:27:52;22.80;99.90
39919;DHT22;25589;51.552;13.424;2022-08-19T10:30:18;22.70;99.90
39919;DHT22;25589;51.552;13.424;2022-08-19T10:32:45;22.60;99.90
39919;DHT22;25589;51.552;13.424;2022-08-19T10:35:11;22.60;99.90
39919;DHT22;25589;51.552;13.424;2022-08-19T10:37:38;22.60;99.90
39919;DHT22;25589;51.552;13.424;2022-08-19T10:40:08;22.60;99.90
39919;DHT22;25589;51.552;13.424;2022-08-19T10:42:36;22.60;99.90
39919;DHT22;25589;51.552;13.424;2022-08-19T10:45:03;22.60;99.90
39919;DHT22;25589;51.552;13.424;2022-08-19T10:47:29;22.70;99.90
39919;DHT22;25589;51.552;13.424;2022-08-19T10:49:55;22.70;99.90
39919;DHT22;25589;51.552;13.424;2022-08-19T10:52:41;22.70;99.90
39919;DHT22;25589;51.552;13.424;2022-08-19T10:55:08;22.80;99.90
39919;DHT22;25589;51.552;13.424;2022-08-19T10:57:52;22.80;99.90
39919;DHT22;25589;51.552;13.424;2022-08-19T11:00:19;22.80;99.90
39919;DHT22;25589;51.552;13.424;2022-08-19T11:02:45;22.70;99.90
39919;DHT22;25589;51.552;13.424;2022-08-19T11:05:11;22.70;99.90
39919;DHT22;25589;51.552;13.424;2022-08-19T11:07:41;22.50;99.90
39919;DHT22;25589;51.552;13.424;2022-08-19T11:10:09;22.50;99.90
39919;DHT22;25589;51.552;13.424;2022-08-19T11:12:37;22.40;99.90
39919;DHT22;25589;51.552;13.424;2022-08-19T11:15:05;22.30;99.90
39919;DHT22;25589;51.552;13.424;2022-08-19T11:17:31;22.20;99.90
39919;DHT22;25589;51.552;13.424;2022-08-19T11:19:57;22.20;99.90
39919;DHT22;25589;51.552;13.424;2022-08-19T11:22:22;22.20;99.90
39919;DHT22;25589;51.552;13.424;2022-08-19T11:24:48;22.20;99.90
39919;DHT22;25589;51.552;13.424;2022-08-19T11:27:13;22.20;99.90
39919;DHT22;25589;51.552;13.424;2022-08-19T11:29:39;22.30;99.90
39919;DHT22;25589;51.552;13.424;2022-08-19T11:32:07;22.30;99.90
39919;DHT22;25589;51.552;13.424;2022-08-19T11:34:38;22.20;99.90
39919;DHT22;25589;51.552;13.424;2022-08-19T11:37:04;22.20;99.90
39919;DHT22;25589;51.552;13.424;2022-08-19T11:39:32;22.10;99.90
39919;DHT22;25589;51.552;13.424;2022-08-19T11:41:58;22.20;99.90
39919;DHT22;25589;51.552;13.424;2022-08-19T11:44:24;22.20;99.90
39919;DHT22;25589;51.552;13.424;2022-08-19T11:46:51;22.20;99.90
39919;DHT22;25589;51.552;13.424;2022-08-19T11:49:19;22.30;99.90
39919;DHT22;25589;51.552;13.424;2022-08-19T11:51:46;22.30;99.90
39919;DHT22;25589;51.552;13.424;2022-08-19T11:54:13;22.30;99.90
39919;DHT22;25589;51.552;13.424;2022-08-19T11:56:39;22.40;99.90
39919;DHT22;25589;51.552;13.424;2022-08-19T11:59:05;22.50;99.90
39919;DHT22;25589;51.552;13.424;2022-08-19T12:01:31;22.50;99.90
39919;DHT22;25589;51.552;13.424;2022-08-19T12:03:57;22.50;99.90
39919;DHT22;25589;51.552;13.424;2022-08-19T12:06:27;22.40;99.90
39919;DHT22;25589;51.552;13.424;2022-08-19T12:08:58;22.30;99.90
39919;DHT22;25589;51.552;13.424;2022-08-19T12:11:24;22.30;99.90
39919;DHT22;25589;51.552;13.424;2022-08-19T12:13:49;22.20;99.90
39919;DHT22;25589;51.552;13.424;2022-08-19T12:16:19;22.20;99.90
39919;DHT22;25589;51.552;13.424;2022-08-19T12:18:45;22.20;99.90
39919;DHT22;25589;51.552;13.424;2022-08-19T12:21:12;22.20;99.90
39919;DHT22;25589;51.552;13.424;2022-08-19T12:23:40;22.20;99.90
39919;DHT22;25589;51.552;13.424;2022-08-19T12:26:05;22.20;99.90
39919;DHT22;25589;51.552;13.424;2022-08-19T12:28:31;22.20;99.90
39919;DHT22;25589;51.552;13.424;2022-08-19T12:30:57;22.20;99.90
39919;DHT22;25589;51.552;13.424;2022-08-19T12:33:23;22.10;99.90
39919;DHT22;25589;51.552;13.424;2022-08-19T12:35:51;22.10;99.90
39919;DHT22;25589;51.552;13.424;2022-08-19T12:38:18;22.10;99.90
39919;DHT22;25589;51.552;13.424;2022-08-19T12:40:48;22.00;99.90
39919;DHT22;25589;51.552;13.424;2022-08-19T12:43:14;22.10;99.90
39919;DHT22;25589;51.552;13.424;2022-08-19T12:45:41;22.10;99.90
39919;DHT22;25589;51.552;13.424;2022-08-19T12:48:10;22.10;99.90
39919;DHT22;25589;51.552;13.424;2022-08-19T12:50:39;22.10;99.90
39919;DHT22;25589;51.552;13.424;2022-08-19T12:53:05;22.20;99.90
39919;DHT22;25589;51.552;13.424;2022-08-19T12:55:31;22.10;99.90
39919;DHT22;25589;51.552;13.424;2022-08-19T12:57:57;22.10;99.90
39919;DHT22;25589;51.552;13.424;2022-08-19T13:00:22;22.10;99.90
39919;DHT22;25589;51.552;13.424;2022-08-19T13:02:50;22.00;99.90
39919;DHT22;25589;51.552;13.424;2022-08-19T13:05:20;22.00;99.90
39919;DHT22;25589;51.552;13.424;2022-08-19T13:07:47;22.00;99.90
39919;DHT22;25589;51.552;13.424;2022-08-19T13:10:16;22.00;99.90
39919;DHT22;25589;51.552;13.424;2022-08-19T13:12:43;22.00;99.90
39919;DHT22;25589;51.552;13.424;2022-08-19T13:15:10;21.90;99.90
39919;DHT22;25589;51.552;13.424;2022-08-19T13:17:36;21.90;99.90
39919;DHT22;25589;51.552;13.424;2022-08-19T13:20:03;21.90;99.90
39919;DHT22;25589;51.552;13.424;2022-08-19T13:22:30;21.90;99.90
39919;DHT22;25589;51.552;13.424;2022-08-19T13:24:56;21.90;99.90
39919;DHT22;25589;51.552;13.424;2022-08-19T13:27:22;21.90;99.90
39919;DHT22;25589;51.552;13.424;2022-08-19T13:29:47;21.90;99.90
39919;DHT22;25589;51.552;13.424;2022-08-19T13:32:31;21.90;99.90
39919;DHT22;25589;51.552;13.424;2022-08-19T13:35:16;21.90;99.90
39919;DHT22;25589;51.552;13.424;2022-08-19T13:37:42;21.80;99.90
39919;DHT22;25589;51.552;13.424;2022-08-19T13:42:38;21.80;99.90
39919;DHT22;25589;51.552;13.424;2022-08-19T13:45:04;21.80;99.90
39919;DHT22;25589;51.552;13.424;2022-08-19T13:47:32;21.90;99.90
39919;DHT22;25589;51.552;13.424;2022-08-19T13:50:02;21.90;99.90
39919;DHT22;25589;51.552;13.424;2022-08-19T13:52:27;21.90;99.90
39919;DHT22;25589;51.552;13.424;2022-08-19T13:54:53;22.00;99.90
39919;DHT22;25589;51.552;13.424;2022-08-19T13:57:19;22.00;99.90
39919;DHT22;25589;51.552;13.424;2022-08-19T13:59:45;22.10;99.90
39919;DHT22;25589;51.552;13.424;2022-08-19T14:02:10;22.10;99.90
39919;DHT22;25589;51.552;13.424;2022-08-19T14:04:36;22.00;99.90
39919;DHT22;25589;51.552;13.424;2022-08-19T14:07:03;22.00;99.90
39919;DHT22;25589;51.552;13.424;2022-08-19T14:09:29;22.10;99.90
39919;DHT22;25589;51.552;13.424;2022-08-19T14:11:55;22.10;99.90
39919;DHT22;25589;51.552;13.424;2022-08-19T14:14:21;22.10;99.90
39919;DHT22;25589;51.552;13.424;2022-08-19T14:16:47;22.20;99.90
39919;DHT22;25589;51.552;13.424;2022-08-19T14:19:13;22.10;99.90
39919;DHT22;25589;51.552;13.424;2022-08-19T14:21:39;22.10;99.90
39919;DHT22;25589;51.552;13.424;2022-08-19T14:24:07;22.20;99.90
39919;DHT22;25589;51.552;13.424;2022-08-19T14:26:32;22.20;99.90
39919;DHT22;25589;51.552;13.424;2022-08-19T14:28:58;22.30;99.90
39919;DHT22;25589;51.552;13.424;2022-08-19T14:31:24;22.30;99.90
39919;DHT22;25589;51.552;13.424;2022-08-19T14:33:50;22.30;99.90
39919;DHT22;25589;51.552;13.424;2022-08-19T14:36:17;22.30;99.90
39919;DHT22;25589;51.552;13.424;2022-08-19T14:38:43;22.30;99.90
39919;DHT22;25589;51.552;13.424;2022-08-19T14:41:17;22.40;99.90
39919;DHT22;25589;51.552;13.424;2022-08-19T14:43:46;22.40;99.90
39919;DHT22;25589;51.552;13.424;2022-08-19T14:46:17;22.50;99.90
39919;DHT22;25589;51.552;13.424;2022-08-19T14:48:43;22.60;99.90
39919;DHT22;25589;51.552;13.424;2022-08-19T14:51:08;22.60;99.90
39919;DHT22;25589;51.552;13.424;2022-08-19T14:53:34;22.60;99.90
39919;DHT22;25589;51.552;13.424;2022-08-19T14:56:00;22.60;99.90
39919;DHT22;25589;51.552;13.424;2022-08-19T14:58:27;22.70;99.90
39919;DHT22;25589;51.552;13.424;2022-08-19T15:00:53;22.70;99.90
39919;DHT22;25589;51.552;13.424;2022-08-19T15:03:18;22.70;99.90
39919;DHT22;25589;51.552;13.424;2022-08-19T15:05:44;22.70;99.90
39919;DHT22;25589;51.552;13.424;2022-08-19T15:08:10;22.70;99.90
39919;DHT22;25589;51.552;13.424;2022-08-19T15:10:38;22.70;99.90
39919;DHT22;25589;51.552;13.424;2022-08-19T15:13:03;22.70;99.90
39919;DHT22;25589;51.552;13.424;2022-08-19T15:15:29;22.80;99.90
39919;DHT22;25589;51.552;13.424;2022-08-19T15:17:54;22.80;99.90
39919;DHT22;25589;51.552;13.424;2022-08-19T15:20:22;22.80;99.90
39919;DHT22;25589;51.552;13.424;2022-08-19T15:22:48;22.80;99.90
39919;DHT22;25589;51.552;13.424;2022-08-19T15:25:15;22.90;99.90
39919;DHT22;25589;51.552;13.424;2022-08-19T15:27:41;22.90;99.90
39919;DHT22;25589;51.552;13.424;2022-08-19T15:30:10;22.90;99.90
39919;DHT22;25589;51.552;13.424;2022-08-19T15:32:37;22.90;99.90
39919;DHT22;25589;51.552;13.424;2022-08-19T15:35:05;22.80;99.90
39919;DHT22;25589;51.552;13.424;2022-08-19T15:37:31;22.80;99.90